Yellowstone National Park, Wyoming
Current Conditions -  °F | °C
As of 8:56 PM on Wednesday 17 Dec 2014 (Local Time) from KDIJ Reporting Station
Overcast Overcast  
Wind Chill: 26°   Ceiling: 4400
Heat Index: 26°   Visibility: 8mi
Dew Point: 25°   Wind: 3mph
Humidity: 96%   Direction: 130°SE
Pressure: 30.03"   Gusts: NA
Location:  44.5747°N, 110.518°W
Report Text: KDIJ 180356Z AUTO 13003KT 8SM OVC044 M03/M04 A3003 RMK AO2 T10331038 UPE29 P0000 SLP175
Loading
Personal Weather Stations






























Interactive Weather Map New forecast layout! Learn more

10-Day Weather Forecast

Advertisements
Track Severe Weather on mobile